Bookmark and Share
Track history (hours):
 

Wye River

More information available from US FCC via Universal Licensing System and Coast Guard Vessel Documentation Center.

Last reported at 2014-Apr-10 11:17 UTC. Time now 2014-Apr-18 20:49 UTC.
Position N 27°39' W 082°37'.
Warning: this ship's position is 8 days out of date.

Length 30 m; draft 5 m.

Type: Towing. MMSI: 367341190.

NotesDate/timePositionNaut miles runAvg speedWind from/ knotsBaromVisibWave heightAir tempDewpointWater temp
2014-Apr-10 11:17N 27°39' W 082°37'  
2014-Apr-07 06:17N 27°39' W 082°37'0 0.1
2014-Apr-07 05:15N 27°39' W 082°37'0 0.0
2014-Apr-07 04:28N 27°39' W 082°37'0 0.0
2014-Apr-07 03:28N 27°39' W 082°37'0 0.0
2014-Apr-07 02:23N 27°39' W 082°37'0 0.0
2014-Apr-07 01:06N 27°39' W 082°37'0 0.0
2014-Apr-06 11:33N 27°39' W 082°37'0 0.0
2014-Apr-06 10:28N 27°39' W 082°37'0 0.0
2014-Apr-05 04:27N 27°39' W 082°37'0 0.1
2014-Apr-04 21:14N 27°40' W 082°37'6 8.7
2014-Apr-04 20:30N 27°44' W 082°32'8 8.0
2014-Apr-04 19:33N 27°50' W 082°27'5 4.8
2014-Apr-04 18:34N 27°55' W 082°27'1 0.8
2014-Apr-04 17:33N 27°54' W 082°26'2 1.5
2014-Apr-04 16:32N 27°56' W 082°26'0 0.0
2014-Apr-04 15:33N 27°56' W 082°26'0 0.0
2014-Apr-04 14:33N 27°56' W 082°26'0 0.0
2014-Apr-04 13:31N 27°56' W 082°26'0 0.0
2014-Apr-04 12:32N 27°56' W 082°26'0 0.0
2014-Apr-04 11:32N 27°56' W 082°26'0 0.0
2014-Apr-04 10:33N 27°56' W 082°26'0 0.0
2014-Apr-04 09:28N 27°56' W 082°26'0 0.0
2014-Apr-04 08:31N 27°56' W 082°26'0 0.0
2014-Apr-04 07:32N 27°56' W 082°26'0 0.0
2014-Apr-04 06:33N 27°56' W 082°26'0 0.0
2014-Apr-04 05:33N 27°56' W 082°26'0 0.0
2014-Apr-04 04:31N 27°56' W 082°26'0 0.0
2014-Apr-04 03:32N 27°56' W 082°26'0 0.0
2014-Apr-04 02:32N 27°56' W 082°26'0 0.0
2014-Apr-04 01:33N 27°56' W 082°26'0 0.0
2014-Apr-04 00:31N 27°56' W 082°26'0 0.0
2014-Apr-03 23:31N 27°56' W 082°26'0 0.0
2014-Apr-03 22:32N 27°56' W 082°26'0 0.0
2014-Apr-03 21:33N 27°56' W 082°26'1 1.0
2014-Apr-03 20:33N 27°55' W 082°26'1 0.8
2014-Apr-03 19:33N 27°54' W 082°26'8 7.6
2014-Apr-03 18:29N 27°47' W 082°31'9 0.7
2014-Apr-03 05:28N 27°40' W 082°37'0 0.0
2014-Apr-02 21:33N 27°39' W 082°37'0 0.0
2014-Apr-02 08:06N 27°40' W 082°37'  

Dump ship's entire track history

sailing weather and tide predictions

Wye River — WDE3583 — position and weather